Latest Weather Observations for Burketown Airport

IDQ60801

Issued at 7:05 pm EST Saturday 23 August 2014 (issued every 30 minutes, with the page automatically refreshed every 10 minutes)

About weather observations | Map of weather stations | Latest weather observations for QLD | Other Formats
Station Details ID: 029077 Name: BURKETOWN AIRPORT Lat: -17.75 Lon: 139.54 Height: 5.7 m
Data from the previous 72 hours. | See also: Recent months at Burketown Airport
Date/Time
EST
Temp
°C
App
Temp
°C
Dew
Point
Rel
Hum
%
Delta-T
°C
Wind Press
QNH
hPa
Press
MSL
hPa
Rain
since 9 am
mm
Dir
 
Spd
km/h
Gust
km/h
Spd
kts
Gust
kts
23/07:00pm 22.3 19.6 9.1 43 7.1 N 13 15 7 8 1014.7 - 0.0
23/06:30pm 24.6 21.3 8.1 35 8.8 N 15 19 8 10 1014.5 - 0.0
23/06:00pm 26.7 22.6 7.7 30 10.2 NNE 19 24 10 13 1014.2 1014.1 0.0
23/05:30pm 28.0 23.2 7.3 27 11.1 NNE 22 28 12 15 1014.0 - 0.0
23/05:00pm 28.7 23.6 6.1 24 11.9 NNE 22 30 12 16 1014.0 - 0.0
23/04:30pm 30.2 24.7 6.1 22 12.8 NNE 24 32 13 17 1013.9 - 0.0
23/04:00pm 30.4 25.2 5.6 21 13.1 NNE 22 30 12 16 1014.2 - 0.0
23/03:30pm 30.7 24.8 5.9 21 13.1 NNE 26 39 14 21 1014.1 - 0.0
23/03:00pm 31.5 25.4 6.5 21 13.4 NNE 28 37 15 20 1014.2 1014.1 0.0
23/02:30pm 32.0 27.2 5.5 19 14.1 N 20 30 11 16 1014.3 - 0.0
23/02:00pm 32.5 28.5 5.1 18 14.5 ENE 15 20 8 11 1014.6 - 0.0
23/01:30pm 31.5 28.3 5.1 19 13.9 E 11 19 6 10 1015.1 - 0.0
23/01:00pm 31.3 26.5 4.9 19 13.8 E 19 28 10 15 1015.7 - 0.0
23/12:30pm 31.3 27.1 5.7 20 13.6 SE 17 26 9 14 1016.0 - 0.0
23/12:00pm 30.1 26.4 6.1 22 12.7 SSE 15 22 8 12 1016.4 1016.3 0.0
23/11:30am 29.4 25.2 7.3 25 11.9 ESE 19 26 10 14 1016.8 - 0.0
23/11:00am 28.1 24.4 7.9 28 10.9 ESE 17 26 9 14 1017.2 - 0.0
23/10:30am 27.4 23.2 8.3 30 10.4 SE 20 28 11 15 1017.7 - 0.0
23/10:00am 25.6 20.5 7.7 32 9.5 S 24 30 13 16 1017.4 - 0.0
23/09:30am 23.9 18.4 7.5 35 8.6 SSE 26 32 14 17 1017.3 - 0.0
23/09:00am 22.6 17.3 6.8 36 8.1 SSE 24 32 13 17 1017.1 1017.0 0.0
23/08:30am 20.9 15.5 4.5 34 8.0 S 22 28 12 15 1017.0 - 0.0
23/08:00am 18.8 14.1 3.0 35 7.3 S 17 20 9 11 1016.9 - 0.0
23/07:30am 16.8 11.5 2.8 39 6.4 S 20 22 11 12 1016.5 - 0.0
23/07:00am 14.0 10.1 3.5 49 4.7 S 13 15 7 8 1016.2 - 0.0
23/06:30am 14.0 10.6 4.0 51 4.6 SSW 11 17 6 9 1015.8 - 0.0
23/06:00am 13.7 11.3 4.3 53 4.3 WSW 6 9 3 5 1015.5 1015.4 0.0
23/05:30am 14.9 12.5 4.3 49 4.9 S 6 7 3 4 1015.1 - 0.0
23/05:00am 15.3 11.9 3.8 46 5.3 SSE 11 13 6 7 1015.1 - 0.0
23/04:30am 16.0 13.2 3.4 43 5.8 SSE 7 11 4 6 1014.9 - 0.0
23/04:00am 13.9 11.0 4.5 53 4.3 SW 9 11 5 6 1014.3 - 0.0
23/03:30am 14.4 10.7 4.7 52 4.5 WSW 13 17 7 9 1014.4 - 0.0
23/03:00am 14.8 10.5 5.3 53 4.5 SW 17 19 9 10 1014.5 1014.4 0.0
23/02:30am 14.1 10.8 6.2 59 3.8 SW 13 15 7 8 1014.7 - 0.0
23/02:00am 13.6 11.8 5.5 58 3.8 SW 4 9 2 5 1015.0 - 0.0
23/01:30am 15.6 14.1 4.9 49 5.0 S 2 13 1 7 1015.2 - 0.0
23/01:00am 17.6 13.3 6.8 49 5.4 SSW 19 30 10 16 1015.3 - 0.0
23/12:30am 15.0 11.7 6.6 57 4.1 W 13 15 7 8 1015.4 - 0.0
23/12:00am 16.3 13.8 6.4 52 4.8 SSW 9 17 5 9 1015.5 1015.4 0.0
 
Date/Time
EST
Temp
°C
App
Temp
°C
Dew
Point
Rel
Hum
%
Delta-T
°C
Wind Press
QNH
hPa
Press
MSL
hPa
Rain
since 9 am
mm
Dir
 
Spd
km/h
Gust
km/h
Spd
kts
Gust
kts
22/11:30pm 16.8 14.4 6.9 52 4.9 WSW 9 11 5 6 1015.5 - 0.0
22/11:00pm 16.1 12.5 6.8 54 4.6 W 15 17 8 9 1015.4 - 0.0
22/10:30pm 17.2 15.0 6.1 48 5.4 NNW 7 9 4 5 1015.4 - 0.0
22/10:00pm 17.8 15.6 6.0 46 5.8 NW 7 9 4 5 1015.3 - 0.0
22/09:30pm 18.1 15.9 6.0 45 5.9 WNW 7 9 4 5 1015.2 - 0.0
22/09:00pm 19.6 17.2 4.5 37 7.3 NNW 6 7 3 4 1015.3 1015.2 0.0
22/08:30pm 20.2 17.8 5.1 37 7.4 NNW 7 9 4 5 1015.1 - 0.0
22/08:00pm 19.4 16.0 4.0 36 7.3 NW 11 13 6 7 1014.6 - 0.0
22/07:30pm 20.9 17.1 4.0 33 8.1 N 13 15 7 8 1014.4 - 0.0
22/07:00pm 23.3 20.0 4.3 29 9.4 NNE 11 13 6 7 1014.0 - 0.0
22/06:30pm 25.6 21.7 3.5 24 10.9 N 13 17 7 9 1013.6 - 0.0
22/06:00pm 28.2 23.4 2.4 19 12.7 N 17 20 9 11 1013.3 1013.2 0.0
22/05:30pm 29.4 24.2 3.4 19 13.1 N 20 24 11 13 1013.2 - 0.0
22/05:00pm 30.4 26.6 1.8 16 14.1 NE 11 20 6 11 1013.0 - 0.0
22/04:30pm 30.6 25.8 0.1 14 14.6 S 15 20 8 11 1012.9 - 0.0
22/04:00pm 30.5 27.0 1.0 15 14.4 SSE 9 13 5 7 1012.9 - 0.0
22/03:30pm 30.5 26.8 0.0 14 14.6 NE 9 17 5 9 1013.1 - 0.0
22/03:00pm 30.4 27.1 -0.1 14 14.6 SE 7 13 4 7 1013.4 1013.3 0.0
22/02:30pm 31.2 27.7 1.5 15 14.7 ESE 9 15 5 8 1013.8 - 0.0
22/02:00pm 29.6 25.9 0.2 15 14.0 ESE 9 17 5 9 1014.2 - 0.0
22/01:30pm 29.7 26.4 0.3 15 14.1 E 7 17 4 9 1014.7 - 0.0
22/01:00pm 29.8 26.3 1.3 16 13.9 ESE 9 17 5 9 1015.3 - 0.0
22/12:30pm 28.9 24.0 -0.3 15 13.8 SE 15 24 8 13 1015.8 - 0.0
22/12:00pm 27.9 22.3 -0.2 16 13.1 SSE 19 28 10 15 1016.4 1016.3 0.0
22/11:30am 27.8 22.1 0.5 17 12.9 SE 20 28 11 15 1017.0 - 0.0
22/11:00am 26.7 20.7 1.2 19 12.1 SE 22 32 12 17 1017.3 - 0.0
22/10:30am 26.0 19.7 1.3 20 11.7 SE 24 32 13 17 1017.6 - 0.0
22/10:00am 24.5 16.8 0.1 20 11.2 SE 30 41 16 22 1017.7 - 0.0
22/09:30am 24.2 16.1 -0.2 20 11.1 SSE 32 41 17 22 1017.7 - 0.0
22/09:00am 22.9 16.3 -0.6 21 10.5 S 24 33 13 18 1017.3 1017.2 0.0
22/08:30am 19.6 13.3 -0.9 25 8.9 S 22 30 12 16 1017.1 - 0.0
22/08:00am 17.4 11.1 -1.3 28 7.9 S 22 30 12 16 1016.7 - 0.0
22/07:30am 15.4 8.6 -1.6 31 7.0 S 24 30 13 16 1016.4 - 0.0
22/07:00am 14.4 7.9 -2.1 32 6.6 SSW 22 26 12 14 1016.2 - 0.0
22/06:30am 13.8 8.3 -1.8 34 6.3 SSW 17 24 9 13 1016.1 - 0.0
22/06:00am 13.8 9.0 -2.2 33 6.3 SSW 13 19 7 10 1015.8 1015.7 0.0
22/05:30am 13.6 8.5 -2.3 33 6.3 S 15 17 8 9 1015.3 - 0.0
22/05:00am 13.9 8.3 -2.5 32 6.5 S 17 19 9 10 1015.0 - 0.0
22/04:30am 14.3 8.3 -3.0 30 6.8 S 19 22 10 12 1015.1 - 0.0
22/04:00am 13.8 8.2 -3.0 31 6.6 S 17 20 9 11 1015.2 - 0.0
22/03:30am 14.1 8.5 -3.2 30 6.7 S 17 17 9 9 1015.4 - 0.0
22/03:00am 15.0 9.4 -3.3 28 7.2 SSW 17 20 9 11 1015.4 1015.3 0.0
22/02:30am 15.4 10.2 -2.5 29 7.2 SSW 15 19 8 10 1015.5 - 0.0
22/02:00am 13.6 8.2 -1.6 35 6.1 SSW 17 19 9 10 1015.7 - 0.0
22/01:30am 12.8 8.2 -0.8 39 5.5 SW 13 15 7 8 1015.9 - 0.0
22/01:00am 13.2 7.8 -1.2 37 5.8 SW 17 17 9 9 1016.2 - 0.0
22/12:30am 13.1 8.3 0.5 42 5.3 WSW 15 15 8 8 1016.5 - 0.0
22/12:00am 13.6 8.8 -0.1 39 5.7 WSW 15 19 8 10 1016.4 1016.3 0.0
 
Date/Time
EST
Temp
°C
App
Temp
°C
Dew
Point
Rel
Hum
%
Delta-T
°C
Wind Press
QNH
hPa
Press
MSL
hPa
Rain
since 9 am
mm
Dir
 
Spd
km/h
Gust
km/h
Spd
kts
Gust
kts
21/11:30pm 14.6 12.8 1.2 40 5.8 CALM 0 0 0 0 1016.3 - 0.0
21/11:00pm 14.7 12.7 0.2 37 6.1 CALM 0 0 0 0 1016.2 - 0.0
21/10:30pm 15.5 12.4 0.1 35 6.5 NW 6 9 3 5 1016.1 - 0.0
21/10:00pm 16.7 13.1 0.4 33 7.0 WNW 9 11 5 6 1016.0 - 0.0
21/09:30pm 18.4 15.1 0.1 29 8.0 NW 7 9 4 5 1016.0 - 0.0
21/09:00pm 19.4 16.2 0.9 29 8.3 N 7 11 4 6 1016.0 1015.9 0.0
21/08:30pm 18.9 15.5 -0.5 27 8.4 N 7 9 4 5 1015.8 - 0.0
21/08:00pm 19.8 16.4 -0.8 25 8.9 N 7 9 4 5 1015.4 - 0.0
21/07:30pm 19.8 15.4 -2.5 22 9.3 S 11 13 6 7 1014.9 - 0.0
21/07:00pm 22.3 17.5 -5.6 15 11.3 S 11 11 6 6 1014.5 - 0.0
21/06:30pm 25.0 20.2 -6.3 12 12.8 S 11 13 6 7 1014.1 - 0.0
21/06:00pm 27.1 21.8 -7.1 10 14.0 SSW 13 17 7 9 1013.7 1013.6 0.0
21/05:30pm 27.8 21.2 -6.6 10 14.4 S 20 26 11 14 1013.5 - 0.0
21/05:00pm 28.1 22.9 -6.3 10 14.5 SSE 13 22 7 12 1013.2 - 0.0
21/04:30pm 28.2 22.5 -7.6 9 14.7 SSW 15 28 8 15 1013.1 - 0.0
21/04:00pm 28.2 22.9 -7.6 9 14.7 S 13 20 7 11 1013.0 - 0.0
21/03:30pm 27.9 22.2 -7.9 9 14.6 S 15 28 8 15 1013.1 - 0.0
21/03:00pm 28.6 22.2 -7.3 9 14.9 SSW 19 30 10 16 1013.3 1013.2 0.0
21/02:30pm 28.5 22.2 -6.0 10 14.6 SSW 19 33 10 18 1013.6 - 0.0
21/02:00pm 27.9 21.9 -6.5 10 14.4 S 17 28 9 15 1014.2 - 0.0
21/01:30pm 28.5 22.7 -4.8 11 14.4 SW 17 26 9 14 1014.7 - 0.0
21/01:00pm 26.5 20.6 -5.2 12 13.4 SSE 17 32 9 17 1015.4 - 0.0
21/12:30pm 27.1 19.8 -5.9 11 13.9 S 24 35 13 19 1015.9 - 0.0
21/12:00pm 26.3 19.5 -5.3 12 13.3 SSE 22 32 12 17 1016.5 1016.4 0.0
21/11:30am 26.1 19.0 -4.4 13 13.0 SSE 24 35 13 19 1016.9 - 0.0
21/11:00am 25.1 17.7 -3.3 15 12.3 SE 26 35 14 19 1017.3 - 0.0
21/10:30am 24.2 17.7 -2.4 17 11.6 SSE 22 35 12 19 1017.9 - 0.0
21/10:00am 22.5 14.0 -3.0 18 10.8 SSE 32 41 17 22 1018.1 - 0.0
21/09:30am 21.3 13.7 -2.5 20 10.1 SSE 28 33 15 18 1018.0 - 0.0
21/09:00am 19.9 12.6 -3.0 21 9.5 S 26 33 14 18 1017.8 1017.7 0.0
21/08:30am 17.2 11.3 -2.4 26 8.0 S 19 28 10 15 1017.5 - 0.0
21/08:00am 14.7 9.6 -2.2 31 6.8 S 15 17 8 9 1017.4 - 0.0
21/07:30am 12.5 7.8 -1.8 37 5.7 S 13 15 7 8 1017.2 - 0.0
21/07:00am 11.2 6.2 -1.2 42 4.9 SSW 15 17 8 9 1016.8 - 0.0
21/06:30am 11.1 6.4 -1.6 41 5.0 S 13 15 7 8 1016.5 - 0.0
21/06:00am 11.7 6.7 -1.4 40 5.2 S 15 19 8 10 1016.3 1016.2 0.0
21/05:30am 11.8 6.7 -1.7 39 5.3 S 15 17 8 9 1016.1 - 0.0
21/05:00am 11.5 6.7 -2.7 37 5.4 S 13 13 7 7 1015.9 - 0.0
21/04:30am 13.5 8.3 -2.4 33 6.3 SSW 15 19 8 10 1015.6 - 0.0
21/04:00am 14.7 8.8 -2.2 31 6.8 SSW 19 22 10 12 1015.4 - 0.0
21/03:30am 14.9 8.8 -2.1 31 6.8 SSW 20 26 11 14 1015.4 - 0.0
21/03:00am 14.4 8.5 -2.1 32 6.6 SW 19 22 10 12 1015.5 1015.4 0.0
21/02:30am 14.9 9.0 -2.5 30 6.9 SSW 19 22 10 12 1015.8 - 0.0
21/02:00am 15.2 9.6 -2.7 29 7.1 SSW 17 20 9 11 1015.9 - 0.0
21/01:30am 15.6 10.1 -2.3 29 7.2 SSW 17 19 9 10 1016.1 - 0.0
21/01:00am 13.4 8.0 -1.3 36 5.9 SW 17 22 9 12 1016.1 - 0.0
21/12:30am 13.1 9.1 0.8 43 5.2 SSW 11 15 6 8 1015.9 - 0.0
21/12:00am 13.7 10.2 -1.1 36 6.0 SW 7 7 4 4 1016.2 1016.1 0.0
 
Date/Time
EST
Temp
°C
App
Temp
°C
Dew
Point
Rel
Hum
%
Delta-T
°C
Wind Press
QNH
hPa
Press
MSL
hPa
Rain
since 9 am
mm
Dir
 
Spd
km/h
Gust
km/h
Spd
kts
Gust
kts
20/11:30pm 14.1 9.9 -1.1 35 6.2 SW 11 15 6 8 1016.1 - 0.0
20/11:00pm 15.4 10.6 -2.5 29 7.2 S 13 13 7 7 1016.0 - 0.0
20/10:30pm 16.9 12.1 -2.7 26 8.0 SSE 13 15 7 8 1015.8 - 0.0
20/10:00pm 17.0 12.2 -2.6 26 8.0 SSE 13 13 7 7 1015.9 - 0.0
20/09:30pm 18.3 13.4 -3.2 23 8.8 SSE 13 15 7 8 1015.8 - 0.0
20/09:00pm 19.1 14.2 -3.7 21 9.2 SSE 13 15 7 8 1015.8 1015.7 0.0
20/08:30pm 19.6 14.3 -3.9 20 9.6 SSE 15 15 8 8 1015.5 - 0.0
20/08:00pm 20.0 15.1 -3.6 20 9.7 SSE 13 15 7 8 1015.3 - 0.0
20/07:30pm 20.0 15.1 -3.6 20 9.7 S 13 15 7 8 1015.0 - 0.0

Other Formats:

Comma delimited format used in spreadsheet applications
http://www.bom.gov.au/fwo/IDQ60801/IDQ60801.94260.axf

JavaScript Object Notation format (JSON) in row-major order
http://www.bom.gov.au/fwo/IDQ60801/IDQ60801.94260.json